sensor_id;sensor_type;location;lat;lon;timestamp;P1;durP1;ratioP1;P2;durP2;ratioP2
22357;SDS011;11346;50.150;8.150;2023-05-16T00:02:18;45.57;;;25.97;;
22357;SDS011;11346;50.150;8.150;2023-05-16T00:04:45;45.03;;;25.67;;
22357;SDS011;11346;50.150;8.150;2023-05-16T00:07:12;45.80;;;25.57;;
22357;SDS011;11346;50.150;8.150;2023-05-16T00:09:39;45.40;;;25.73;;
22357;SDS011;11346;50.150;8.150;2023-05-16T00:12:06;41.80;;;25.43;;
22357;SDS011;11346;50.150;8.150;2023-05-16T00:14:33;40.93;;;25.13;;
22357;SDS011;11346;50.150;8.150;2023-05-16T00:17:01;43.37;;;24.63;;
22357;SDS011;11346;50.150;8.150;2023-05-16T00:19:29;43.30;;;26.00;;
22357;SDS011;11346;50.150;8.150;2023-05-16T00:21:56;43.67;;;24.57;;
22357;SDS011;11346;50.150;8.150;2023-05-16T00:24:24;42.80;;;23.77;;
22357;SDS011;11346;50.150;8.150;2023-05-16T00:26:51;43.17;;;25.57;;
22357;SDS011;11346;50.150;8.150;2023-05-16T00:29:17;40.37;;;23.33;;
22357;SDS011;11346;50.150;8.150;2023-05-16T00:31:44;40.43;;;24.37;;
22357;SDS011;11346;50.150;8.150;2023-05-16T00:34:11;39.33;;;22.63;;
22357;SDS011;11346;50.150;8.150;2023-05-16T00:36:40;36.07;;;22.90;;
22357;SDS011;11346;50.150;8.150;2023-05-16T00:39:07;41.67;;;22.90;;
22357;SDS011;11346;50.150;8.150;2023-05-16T00:41:35;34.00;;;20.17;;
22357;SDS011;11346;50.150;8.150;2023-05-16T00:44:02;37.10;;;22.00;;
22357;SDS011;11346;50.150;8.150;2023-05-16T00:46:30;38.83;;;20.57;;
22357;SDS011;11346;50.150;8.150;2023-05-16T00:48:57;37.57;;;20.23;;
22357;SDS011;11346;50.150;8.150;2023-05-16T00:51:24;35.23;;;20.30;;
22357;SDS011;11346;50.150;8.150;2023-05-16T00:53:53;31.07;;;18.70;;
22357;SDS011;11346;50.150;8.150;2023-05-16T00:56:21;33.50;;;18.13;;
22357;SDS011;11346;50.150;8.150;2023-05-16T00:58:48;30.03;;;17.63;;
22357;SDS011;11346;50.150;8.150;2023-05-16T01:01:15;32.67;;;18.07;;
22357;SDS011;11346;50.150;8.150;2023-05-16T01:03:42;32.77;;;18.77;;
22357;SDS011;11346;50.150;8.150;2023-05-16T01:06:11;28.87;;;17.83;;
22357;SDS011;11346;50.150;8.150;2023-05-16T01:08:38;31.50;;;18.40;;
22357;SDS011;11346;50.150;8.150;2023-05-16T01:11:07;28.33;;;16.87;;
22357;SDS011;11346;50.150;8.150;2023-05-16T01:13:40;28.43;;;16.77;;
22357;SDS011;11346;50.150;8.150;2023-05-16T01:16:09;28.93;;;17.63;;
22357;SDS011;11346;50.150;8.150;2023-05-16T01:18:39;31.53;;;17.83;;
22357;SDS011;11346;50.150;8.150;2023-05-16T01:21:09;31.77;;;18.77;;
22357;SDS011;11346;50.150;8.150;2023-05-16T01:23:40;31.97;;;17.57;;
22357;SDS011;11346;50.150;8.150;2023-05-16T01:26:15;29.13;;;16.83;;
22357;SDS011;11346;50.150;8.150;2023-05-16T01:28:44;35.63;;;20.27;;
22357;SDS011;11346;50.150;8.150;2023-05-16T01:31:11;41.73;;;20.00;;
22357;SDS011;11346;50.150;8.150;2023-05-16T01:33:38;36.00;;;19.20;;
22357;SDS011;11346;50.150;8.150;2023-05-16T01:36:07;34.40;;;19.33;;
22357;SDS011;11346;50.150;8.150;2023-05-16T01:38:38;36.00;;;20.77;;
22357;SDS011;11346;50.150;8.150;2023-05-16T01:41:07;32.23;;;18.57;;
22357;SDS011;11346;50.150;8.150;2023-05-16T01:43:41;32.27;;;19.13;;
22357;SDS011;11346;50.150;8.150;2023-05-16T01:46:09;34.90;;;19.90;;
22357;SDS011;11346;50.150;8.150;2023-05-16T01:48:38;32.23;;;18.83;;
22357;SDS011;11346;50.150;8.150;2023-05-16T01:51:08;36.77;;;18.40;;
22357;SDS011;11346;50.150;8.150;2023-05-16T01:53:37;33.77;;;18.83;;
22357;SDS011;11346;50.150;8.150;2023-05-16T01:56:06;32.70;;;18.03;;
22357;SDS011;11346;50.150;8.150;2023-05-16T01:58:35;28.10;;;17.17;;
22357;SDS011;11346;50.150;8.150;2023-05-16T02:01:04;30.37;;;16.40;;
22357;SDS011;11346;50.150;8.150;2023-05-16T02:03:32;28.73;;;16.17;;
22357;SDS011;11346;50.150;8.150;2023-05-16T02:05:59;27.13;;;15.70;;
22357;SDS011;11346;50.150;8.150;2023-05-16T02:08:26;30.87;;;16.17;;
22357;SDS011;11346;50.150;8.150;2023-05-16T02:10:54;25.20;;;15.27;;
22357;SDS011;11346;50.150;8.150;2023-05-16T02:13:21;28.57;;;15.47;;
22357;SDS011;11346;50.150;8.150;2023-05-16T02:15:48;26.80;;;15.57;;
22357;SDS011;11346;50.150;8.150;2023-05-16T02:18:16;29.83;;;16.70;;
22357;SDS011;11346;50.150;8.150;2023-05-16T02:20:43;32.53;;;16.87;;
22357;SDS011;11346;50.150;8.150;2023-05-16T02:23:11;31.90;;;15.83;;
22357;SDS011;11346;50.150;8.150;2023-05-16T02:25:38;33.77;;;18.53;;
22357;SDS011;11346;50.150;8.150;2023-05-16T02:28:05;34.30;;;18.13;;
22357;SDS011;11346;50.150;8.150;2023-05-16T02:30:32;30.37;;;15.97;;
22357;SDS011;11346;50.150;8.150;2023-05-16T02:32:59;31.87;;;16.70;;
22357;SDS011;11346;50.150;8.150;2023-05-16T02:35:28;28.73;;;16.37;;
22357;SDS011;11346;50.150;8.150;2023-05-16T02:37:55;29.77;;;16.53;;
22357;SDS011;11346;50.150;8.150;2023-05-16T02:40:22;35.63;;;17.13;;
22357;SDS011;11346;50.150;8.150;2023-05-16T02:42:49;33.30;;;16.67;;
22357;SDS011;11346;50.150;8.150;2023-05-16T02:45:16;32.40;;;18.03;;
22357;SDS011;11346;50.150;8.150;2023-05-16T02:47:43;33.43;;;17.60;;
22357;SDS011;11346;50.150;8.150;2023-05-16T02:50:10;34.13;;;16.47;;
22357;SDS011;11346;50.150;8.150;2023-05-16T02:52:38;29.93;;;16.63;;
22357;SDS011;11346;50.150;8.150;2023-05-16T02:55:06;33.27;;;17.30;;
22357;SDS011;11346;50.150;8.150;2023-05-16T02:57:33;33.17;;;16.00;;
22357;SDS011;11346;50.150;8.150;2023-05-16T03:00:00;32.33;;;16.33;;
22357;SDS011;11346;50.150;8.150;2023-05-16T03:02:30;34.53;;;16.23;;
22357;SDS011;11346;50.150;8.150;2023-05-16T03:04:56;28.67;;;15.27;;
22357;SDS011;11346;50.150;8.150;2023-05-16T03:07:23;26.77;;;14.13;;
22357;SDS011;11346;50.150;8.150;2023-05-16T03:09:52;26.50;;;14.50;;
22357;SDS011;11346;50.150;8.150;2023-05-16T03:12:19;27.53;;;13.83;;
22357;SDS011;11346;50.150;8.150;2023-05-16T03:14:46;24.60;;;13.53;;
22357;SDS011;11346;50.150;8.150;2023-05-16T03:17:13;23.37;;;13.03;;
22357;SDS011;11346;50.150;8.150;2023-05-16T03:19:40;23.73;;;13.10;;
22357;SDS011;11346;50.150;8.150;2023-05-16T03:22:07;18.00;;;11.37;;
22357;SDS011;11346;50.150;8.150;2023-05-16T03:24:34;19.47;;;11.17;;
22357;SDS011;11346;50.150;8.150;2023-05-16T03:27:02;19.70;;;10.03;;
22357;SDS011;11346;50.150;8.150;2023-05-16T03:29:29;16.33;;;10.07;;
22357;SDS011;11346;50.150;8.150;2023-05-16T03:31:56;15.90;;;8.43;;
22357;SDS011;11346;50.150;8.150;2023-05-16T03:34:23;15.93;;;8.13;;
22357;SDS011;11346;50.150;8.150;2023-05-16T03:36:50;11.87;;;6.90;;
22357;SDS011;11346;50.150;8.150;2023-05-16T03:39:18;12.27;;;6.13;;
22357;SDS011;11346;50.150;8.150;2023-05-16T03:41:45;10.00;;;5.83;;
22357;SDS011;11346;50.150;8.150;2023-05-16T03:44:13;9.63;;;5.73;;
22357;SDS011;11346;50.150;8.150;2023-05-16T03:46:40;11.00;;;5.63;;
22357;SDS011;11346;50.150;8.150;2023-05-16T03:49:07;8.90;;;5.90;;
22357;SDS011;11346;50.150;8.150;2023-05-16T03:51:34;8.90;;;5.40;;
22357;SDS011;11346;50.150;8.150;2023-05-16T03:54:01;8.80;;;4.80;;
22357;SDS011;11346;50.150;8.150;2023-05-16T03:56:28;7.97;;;4.93;;
22357;SDS011;11346;50.150;8.150;2023-05-16T03:58:55;6.57;;;4.90;;
22357;SDS011;11346;50.150;8.150;2023-05-16T04:01:23;6.43;;;4.40;;
22357;SDS011;11346;50.150;8.150;2023-05-16T04:03:51;7.03;;;4.37;;
22357;SDS011;11346;50.150;8.150;2023-05-16T04:06:18;4.10;;;3.57;;
22357;SDS011;11346;50.150;8.150;2023-05-16T04:08:45;5.27;;;3.60;;
22357;SDS011;11346;50.150;8.150;2023-05-16T04:11:13;4.17;;;3.60;;
22357;SDS011;11346;50.150;8.150;2023-05-16T04:13:40;5.00;;;3.47;;
22357;SDS011;11346;50.150;8.150;2023-05-16T04:16:07;4.83;;;3.13;;
22357;SDS011;11346;50.150;8.150;2023-05-16T04:18:35;3.27;;;2.80;;
22357;SDS011;11346;50.150;8.150;2023-05-16T04:21:02;4.50;;;2.60;;
22357;SDS011;11346;50.150;8.150;2023-05-16T04:23:30;2.70;;;2.43;;
22357;SDS011;11346;50.150;8.150;2023-05-16T04:25:57;3.53;;;2.70;;
22357;SDS011;11346;50.150;8.150;2023-05-16T04:28:25;2.57;;;2.33;;
22357;SDS011;11346;50.150;8.150;2023-05-16T04:30:52;3.90;;;2.60;;
22357;SDS011;11346;50.150;8.150;2023-05-16T04:33:20;2.20;;;1.80;;
22357;SDS011;11346;50.150;8.150;2023-05-16T04:35:48;2.73;;;2.10;;
22357;SDS011;11346;50.150;8.150;2023-05-16T04:38:16;2.00;;;1.80;;
22357;SDS011;11346;50.150;8.150;2023-05-16T04:40:43;1.80;;;1.70;;
22357;SDS011;11346;50.150;8.150;2023-05-16T04:43:11;1.90;;;1.80;;
22357;SDS011;11346;50.150;8.150;2023-05-16T04:45:38;2.30;;;2.10;;
22357;SDS011;11346;50.150;8.150;2023-05-16T04:48:06;2.10;;;2.00;;
22357;SDS011;11346;50.150;8.150;2023-05-16T04:50:33;1.93;;;1.80;;
22357;SDS011;11346;50.150;8.150;2023-05-16T04:53:02;2.33;;;2.20;;
22357;SDS011;11346;50.150;8.150;2023-05-16T04:55:29;1.97;;;1.80;;
22357;SDS011;11346;50.150;8.150;2023-05-16T04:57:56;2.20;;;2.00;;
22357;SDS011;11346;50.150;8.150;2023-05-16T05:00:23;2.10;;;2.00;;
22357;SDS011;11346;50.150;8.150;2023-05-16T05:02:51;2.23;;;1.80;;
22357;SDS011;11346;50.150;8.150;2023-05-16T05:05:18;2.00;;;1.90;;
22357;SDS011;11346;50.150;8.150;2023-05-16T05:07:45;1.83;;;1.73;;
22357;SDS011;11346;50.150;8.150;2023-05-16T05:10:13;2.67;;;1.90;;
22357;SDS011;11346;50.150;8.150;2023-05-16T05:12:40;2.17;;;1.97;;
22357;SDS011;11346;50.150;8.150;2023-05-16T05:15:07;2.47;;;2.27;;
22357;SDS011;11346;50.150;8.150;2023-05-16T05:17:34;2.40;;;2.10;;
22357;SDS011;11346;50.150;8.150;2023-05-16T05:20:02;2.30;;;2.20;;
22357;SDS011;11346;50.150;8.150;2023-05-16T05:22:31;2.60;;;2.40;;
22357;SDS011;11346;50.150;8.150;2023-05-16T05:24:58;2.47;;;2.20;;
22357;SDS011;11346;50.150;8.150;2023-05-16T05:27:26;2.50;;;2.30;;
22357;SDS011;11346;50.150;8.150;2023-05-16T05:29:53;2.20;;;2.10;;
22357;SDS011;11346;50.150;8.150;2023-05-16T05:32:20;2.57;;;2.20;;
22357;SDS011;11346;50.150;8.150;2023-05-16T05:34:47;2.20;;;2.10;;
22357;SDS011;11346;50.150;8.150;2023-05-16T05:37:14;2.50;;;2.30;;
22357;SDS011;11346;50.150;8.150;2023-05-16T05:39:41;2.00;;;1.90;;
22357;SDS011;11346;50.150;8.150;2023-05-16T05:42:09;2.10;;;2.00;;
22357;SDS011;11346;50.150;8.150;2023-05-16T05:44:37;2.50;;;2.30;;
22357;SDS011;11346;50.150;8.150;2023-05-16T05:47:05;2.20;;;2.10;;
22357;SDS011;11346;50.150;8.150;2023-05-16T05:49:32;2.17;;;2.07;;
22357;SDS011;11346;50.150;8.150;2023-05-16T05:51:59;2.37;;;2.17;;
22357;SDS011;11346;50.150;8.150;2023-05-16T05:54:26;2.40;;;2.20;;
22357;SDS011;11346;50.150;8.150;2023-05-16T05:56:55;4.73;;;2.67;;
22357;SDS011;11346;50.150;8.150;2023-05-16T05:59:22;2.13;;;2.03;;
22357;SDS011;11346;50.150;8.150;2023-05-16T06:01:50;2.30;;;2.10;;
22357;SDS011;11346;50.150;8.150;2023-05-16T06:04:17;2.40;;;2.20;;
22357;SDS011;11346;50.150;8.150;2023-05-16T06:06:44;1.90;;;1.80;;
22357;SDS011;11346;50.150;8.150;2023-05-16T06:09:11;2.30;;;2.10;;
22357;SDS011;11346;50.150;8.150;2023-05-16T06:11:39;2.67;;;2.10;;
22357;SDS011;11346;50.150;8.150;2023-05-16T06:14:06;2.60;;;1.90;;
22357;SDS011;11346;50.150;8.150;2023-05-16T06:16:33;2.67;;;1.90;;
22357;SDS011;11346;50.150;8.150;2023-05-16T06:19:02;2.50;;;1.87;;
22357;SDS011;11346;50.150;8.150;2023-05-16T06:21:29;1.87;;;1.77;;
22357;SDS011;11346;50.150;8.150;2023-05-16T06:23:57;2.00;;;1.90;;
22357;SDS011;11346;50.150;8.150;2023-05-16T06:26:24;1.87;;;1.77;;
22357;SDS011;11346;50.150;8.150;2023-05-16T06:28:51;1.60;;;1.50;;
22357;SDS011;11346;50.150;8.150;2023-05-16T06:31:18;1.70;;;1.60;;
22357;SDS011;11346;50.150;8.150;2023-05-16T06:33:45;2.43;;;2.00;;
22357;SDS011;11346;50.150;8.150;2023-05-16T06:36:13;1.90;;;1.50;;
22357;SDS011;11346;50.150;8.150;2023-05-16T06:38:40;1.80;;;1.70;;
22357;SDS011;11346;50.150;8.150;2023-05-16T06:41:07;2.47;;;1.60;;
22357;SDS011;11346;50.150;8.150;2023-05-16T06:43:34;1.90;;;1.80;;
22357;SDS011;11346;50.150;8.150;2023-05-16T06:46:01;1.53;;;1.43;;
22357;SDS011;11346;50.150;8.150;2023-05-16T06:48:28;1.47;;;1.47;;
22357;SDS011;11346;50.150;8.150;2023-05-16T06:50:55;1.70;;;1.60;;
22357;SDS011;11346;50.150;8.150;2023-05-16T06:53:24;1.40;;;1.40;;
22357;SDS011;11346;50.150;8.150;2023-05-16T06:55:52;2.87;;;1.40;;
22357;SDS011;11346;50.150;8.150;2023-05-16T06:58:19;1.30;;;1.20;;
22357;SDS011;11346;50.150;8.150;2023-05-16T07:00:47;1.50;;;1.40;;
22357;SDS011;11346;50.150;8.150;2023-05-16T07:03:14;1.27;;;1.27;;
22357;SDS011;11346;50.150;8.150;2023-05-16T07:05:41;1.40;;;1.40;;
22357;SDS011;11346;50.150;8.150;2023-05-16T07:08:08;1.20;;;1.20;;
22357;SDS011;11346;50.150;8.150;2023-05-16T07:10:37;1.50;;;1.40;;
22357;SDS011;11346;50.150;8.150;2023-05-16T07:13:04;1.10;;;1.10;;
22357;SDS011;11346;50.150;8.150;2023-05-16T07:15:31;1.00;;;1.00;;
22357;SDS011;11346;50.150;8.150;2023-05-16T07:17:58;1.10;;;1.10;;
22357;SDS011;11346;50.150;8.150;2023-05-16T07:20:25;1.50;;;1.03;;
22357;SDS011;11346;50.150;8.150;2023-05-16T07:22:52;1.00;;;1.00;;
22357;SDS011;11346;50.150;8.150;2023-05-16T07:25:21;0.80;;;0.80;;
22357;SDS011;11346;50.150;8.150;2023-05-16T07:27:49;0.90;;;0.90;;
22357;SDS011;11346;50.150;8.150;2023-05-16T07:30:16;0.80;;;0.80;;
22357;SDS011;11346;50.150;8.150;2023-05-16T07:32:44;1.00;;;1.00;;
22357;SDS011;11346;50.150;8.150;2023-05-16T07:35:11;1.43;;;1.00;;
22357;SDS011;11346;50.150;8.150;2023-05-16T07:37:38;1.13;;;1.00;;
22357;SDS011;11346;50.150;8.150;2023-05-16T07:40:07;1.00;;;1.00;;
22357;SDS011;11346;50.150;8.150;2023-05-16T07:42:35;0.87;;;0.87;;
22357;SDS011;11346;50.150;8.150;2023-05-16T07:45:04;0.90;;;0.90;;
22357;SDS011;11346;50.150;8.150;2023-05-16T07:47:32;2.50;;;1.30;;
22357;SDS011;11346;50.150;8.150;2023-05-16T07:49:59;0.90;;;0.90;;
22357;SDS011;11346;50.150;8.150;2023-05-16T07:52:26;2.00;;;1.23;;
22357;SDS011;11346;50.150;8.150;2023-05-16T07:54:53;1.50;;;1.00;;
22357;SDS011;11346;50.150;8.150;2023-05-16T07:57:20;2.87;;;1.60;;
22357;SDS011;11346;50.150;8.150;2023-05-16T07:59:47;1.33;;;1.30;;
22357;SDS011;11346;50.150;8.150;2023-05-16T08:02:17;2.20;;;1.20;;
22357;SDS011;11346;50.150;8.150;2023-05-16T08:04:44;1.33;;;1.20;;
22357;SDS011;11346;50.150;8.150;2023-05-16T08:07:12;1.23;;;1.13;;
22357;SDS011;11346;50.150;8.150;2023-05-16T08:09:39;1.10;;;1.10;;
22357;SDS011;11346;50.150;8.150;2023-05-16T08:12:07;1.70;;;1.30;;
22357;SDS011;11346;50.150;8.150;2023-05-16T08:14:34;1.73;;;1.40;;
22357;SDS011;11346;50.150;8.150;2023-05-16T08:17:01;2.83;;;1.70;;
22357;SDS011;11346;50.150;8.150;2023-05-16T08:19:30;1.70;;;1.23;;
22357;SDS011;11346;50.150;8.150;2023-05-16T08:21:57;2.20;;;1.30;;
22357;SDS011;11346;50.150;8.150;2023-05-16T08:24:24;1.50;;;1.40;;
22357;SDS011;11346;50.150;8.150;2023-05-16T08:26:51;1.50;;;1.40;;
22357;SDS011;11346;50.150;8.150;2023-05-16T08:29:18;2.23;;;1.63;;
22357;SDS011;11346;50.150;8.150;2023-05-16T08:31:46;1.83;;;1.50;;
22357;SDS011;11346;50.150;8.150;2023-05-16T08:34:13;1.60;;;1.50;;
22357;SDS011;11346;50.150;8.150;2023-05-16T08:36:41;1.90;;;1.63;;
22357;SDS011;11346;50.150;8.150;2023-05-16T08:39:08;1.63;;;1.53;;
22357;SDS011;11346;50.150;8.150;2023-05-16T08:41:36;3.67;;;1.83;;
22357;SDS011;11346;50.150;8.150;2023-05-16T08:44:03;4.00;;;1.70;;
22357;SDS011;11346;50.150;8.150;2023-05-16T08:46:31;2.70;;;1.70;;
22357;SDS011;11346;50.150;8.150;2023-05-16T08:48:59;6.53;;;2.00;;
22357;SDS011;11346;50.150;8.150;2023-05-16T08:51:32;3.37;;;2.50;;
22357;SDS011;11346;50.150;8.150;2023-05-16T08:54:02;7.40;;;2.67;;
22357;SDS011;11346;50.150;8.150;2023-05-16T08:56:30;8.00;;;2.70;;
22357;SDS011;11346;50.150;8.150;2023-05-16T08:58:59;7.33;;;2.50;;
22357;SDS011;11346;50.150;8.150;2023-05-16T09:01:26;8.43;;;2.50;;
22357;SDS011;11346;50.150;8.150;2023-05-16T09:03:54;8.63;;;2.70;;
22357;SDS011;11346;50.150;8.150;2023-05-16T09:06:21;8.60;;;2.77;;
22357;SDS011;11346;50.150;8.150;2023-05-16T09:08:48;6.37;;;2.53;;
22357;SDS011;11346;50.150;8.150;2023-05-16T09:11:17;11.10;;;2.73;;
22357;SDS011;11346;50.150;8.150;2023-05-16T09:13:45;8.77;;;2.57;;
22357;SDS011;11346;50.150;8.150;2023-05-16T09:16:13;13.07;;;2.93;;
22357;SDS011;11346;50.150;8.150;2023-05-16T09:18:42;9.50;;;2.43;;
22357;SDS011;11346;50.150;8.150;2023-05-16T09:21:10;10.30;;;2.93;;
22357;SDS011;11346;50.150;8.150;2023-05-16T09:23:37;8.20;;;2.37;;
22357;SDS011;11346;50.150;8.150;2023-05-16T09:26:04;7.80;;;2.67;;
22357;SDS011;11346;50.150;8.150;2023-05-16T09:28:33;10.20;;;2.10;;
22357;SDS011;11346;50.150;8.150;2023-05-16T09:31:03;10.23;;;2.13;;
22357;SDS011;11346;50.150;8.150;2023-05-16T09:33:30;12.57;;;2.40;;
22357;SDS011;11346;50.150;8.150;2023-05-16T09:35:57;8.63;;;2.30;;
22357;SDS011;11346;50.150;8.150;2023-05-16T09:38:25;5.87;;;2.17;;
22357;SDS011;11346;50.150;8.150;2023-05-16T09:40:52;10.57;;;1.97;;
22357;SDS011;11346;50.150;8.150;2023-05-16T09:43:20;6.87;;;2.10;;
22357;SDS011;11346;50.150;8.150;2023-05-16T09:45:49;7.33;;;2.00;;
22357;SDS011;11346;50.150;8.150;2023-05-16T09:48:16;6.43;;;1.70;;
22357;SDS011;11346;50.150;8.150;2023-05-16T09:50:48;11.73;;;2.37;;
22357;SDS011;11346;50.150;8.150;2023-05-16T09:53:16;8.00;;;2.47;;
22357;SDS011;11346;50.150;8.150;2023-05-16T09:55:44;13.20;;;1.93;;
22357;SDS011;11346;50.150;8.150;2023-05-16T09:58:11;6.53;;;2.07;;
22357;SDS011;11346;50.150;8.150;2023-05-16T10:00:38;9.10;;;2.20;;
22357;SDS011;11346;50.150;8.150;2023-05-16T10:03:06;7.03;;;1.90;;
22357;SDS011;11346;50.150;8.150;2023-05-16T10:05:34;7.93;;;2.23;;
22357;SDS011;11346;50.150;8.150;2023-05-16T10:08:02;9.57;;;2.20;;
22357;SDS011;11346;50.150;8.150;2023-05-16T10:10:29;9.70;;;2.07;;
22357;SDS011;11346;50.150;8.150;2023-05-16T10:12:57;9.97;;;2.10;;
22357;SDS011;11346;50.150;8.150;2023-05-16T10:15:25;10.27;;;1.90;;
22357;SDS011;11346;50.150;8.150;2023-05-16T10:17:53;6.87;;;2.07;;
22357;SDS011;11346;50.150;8.150;2023-05-16T10:20:24;8.07;;;1.80;;
22357;SDS011;11346;50.150;8.150;2023-05-16T10:22:52;8.97;;;2.10;;
22357;SDS011;11346;50.150;8.150;2023-05-16T10:25:23;8.73;;;1.80;;
22357;SDS011;11346;50.150;8.150;2023-05-16T10:27:51;8.53;;;2.03;;
22357;SDS011;11346;50.150;8.150;2023-05-16T10:30:18;7.37;;;1.70;;
22357;SDS011;11346;50.150;8.150;2023-05-16T10:32:45;8.97;;;1.80;;
22357;SDS011;11346;50.150;8.150;2023-05-16T10:35:13;8.50;;;1.73;;
22357;SDS011;11346;50.150;8.150;2023-05-16T10:37:41;6.67;;;1.80;;
22357;SDS011;11346;50.150;8.150;2023-05-16T10:40:09;7.27;;;2.00;;
22357;SDS011;11346;50.150;8.150;2023-05-16T10:42:36;9.03;;;2.27;;
22357;SDS011;11346;50.150;8.150;2023-05-16T10:45:16;4.93;;;1.87;;
22357;SDS011;11346;50.150;8.150;2023-05-16T10:47:50;4.73;;;1.93;;
22357;SDS011;11346;50.150;8.150;2023-05-16T10:50:29;4.83;;;1.40;;
22357;SDS011;11346;50.150;8.150;2023-05-16T10:52:58;11.70;;;2.90;;
22357;SDS011;11346;50.150;8.150;2023-05-16T10:55:37;6.07;;;1.63;;
22357;SDS011;11346;50.150;8.150;2023-05-16T10:58:04;5.17;;;1.67;;
22357;SDS011;11346;50.150;8.150;2023-05-16T11:00:31;6.73;;;1.57;;
22357;SDS011;11346;50.150;8.150;2023-05-16T11:03:03;5.67;;;1.80;;
22357;SDS011;11346;50.150;8.150;2023-05-16T11:05:30;4.60;;;1.50;;
22357;SDS011;11346;50.150;8.150;2023-05-16T11:08:05;8.27;;;1.70;;
22357;SDS011;11346;50.150;8.150;2023-05-16T11:10:32;6.53;;;1.30;;
22357;SDS011;11346;50.150;8.150;2023-05-16T11:13:01;5.67;;;1.50;;
22357;SDS011;11346;50.150;8.150;2023-05-16T11:15:30;9.00;;;1.60;;
22357;SDS011;11346;50.150;8.150;2023-05-16T11:18:05;3.60;;;1.40;;
22357;SDS011;11346;50.150;8.150;2023-05-16T11:20:33;4.40;;;1.57;;
22357;SDS011;11346;50.150;8.150;2023-05-16T11:25:48;4.90;;;1.50;;
22357;SDS011;11346;50.150;8.150;2023-05-16T11:28:16;5.50;;;1.40;;
22357;SDS011;11346;50.150;8.150;2023-05-16T11:30:44;7.97;;;1.50;;
22357;SDS011;11346;50.150;8.150;2023-05-16T11:33:11;3.63;;;1.03;;
22357;SDS011;11346;50.150;8.150;2023-05-16T11:35:38;5.60;;;1.30;;
22357;SDS011;11346;50.150;8.150;2023-05-16T11:38:10;3.60;;;1.33;;
22357;SDS011;11346;50.150;8.150;2023-05-16T11:40:40;9.60;;;1.80;;
22357;SDS011;11346;50.150;8.150;2023-05-16T11:43:09;4.73;;;1.57;;
22357;SDS011;11346;50.150;8.150;2023-05-16T11:45:36;5.03;;;1.27;;
22357;SDS011;11346;50.150;8.150;2023-05-16T11:48:04;6.10;;;1.47;;
22357;SDS011;11346;50.150;8.150;2023-05-16T11:50:32;4.57;;;1.50;;
22357;SDS011;11346;50.150;8.150;2023-05-16T11:53:00;4.73;;;1.33;;
22357;SDS011;11346;50.150;8.150;2023-05-16T11:55:27;7.27;;;1.40;;
22357;SDS011;11346;50.150;8.150;2023-05-16T11:57:55;4.73;;;1.70;;
22357;SDS011;11346;50.150;8.150;2023-05-16T12:00:24;5.00;;;1.60;;
22357;SDS011;11346;50.150;8.150;2023-05-16T12:02:52;6.63;;;1.50;;
22357;SDS011;11346;50.150;8.150;2023-05-16T12:05:19;5.03;;;1.30;;
22357;SDS011;11346;50.150;8.150;2023-05-16T12:07:49;3.73;;;1.20;;
22357;SDS011;11346;50.150;8.150;2023-05-16T12:10:18;3.30;;;1.30;;
22357;SDS011;11346;50.150;8.150;2023-05-16T12:12:46;7.43;;;1.37;;
22357;SDS011;11346;50.150;8.150;2023-05-16T12:15:13;4.33;;;1.30;;
22357;SDS011;11346;50.150;8.150;2023-05-16T12:17:42;4.67;;;1.50;;
22357;SDS011;11346;50.150;8.150;2023-05-16T12:20:10;4.40;;;1.50;;
22357;SDS011;11346;50.150;8.150;2023-05-16T12:22:40;4.77;;;1.30;;
22357;SDS011;11346;50.150;8.150;2023-05-16T12:25:26;4.50;;;1.20;;
22357;SDS011;11346;50.150;8.150;2023-05-16T12:27:53;3.07;;;1.10;;
22357;SDS011;11346;50.150;8.150;2023-05-16T12:30:21;7.37;;;1.50;;
22357;SDS011;11346;50.150;8.150;2023-05-16T12:32:53;3.30;;;1.40;;
22357;SDS011;11346;50.150;8.150;2023-05-16T12:35:21;4.17;;;1.40;;
22357;SDS011;11346;50.150;8.150;2023-05-16T12:37:48;5.10;;;1.50;;
22357;SDS011;11346;50.150;8.150;2023-05-16T12:40:15;5.57;;;1.30;;
22357;SDS011;11346;50.150;8.150;2023-05-16T12:42:44;4.73;;;1.60;;
22357;SDS011;11346;50.150;8.150;2023-05-16T12:45:14;3.63;;;1.30;;
22357;SDS011;11346;50.150;8.150;2023-05-16T12:47:42;4.33;;;1.30;;
22357;SDS011;11346;50.150;8.150;2023-05-16T12:50:11;3.43;;;1.43;;
22357;SDS011;11346;50.150;8.150;2023-05-16T12:52:45;4.70;;;1.60;;
22357;SDS011;11346;50.150;8.150;2023-05-16T12:55:13;3.50;;;1.50;;
22357;SDS011;11346;50.150;8.150;2023-05-16T12:57:40;4.03;;;1.37;;
22357;SDS011;11346;50.150;8.150;2023-05-16T13:00:08;3.83;;;1.70;;
22357;SDS011;11346;50.150;8.150;2023-05-16T13:02:36;3.83;;;1.40;;
22357;SDS011;11346;50.150;8.150;2023-05-16T13:05:04;4.33;;;1.60;;
22357;SDS011;11346;50.150;8.150;2023-05-16T13:07:33;5.30;;;1.80;;
22357;SDS011;11346;50.150;8.150;2023-05-16T13:10:00;3.40;;;1.43;;
22357;SDS011;11346;50.150;8.150;2023-05-16T13:12:28;7.40;;;1.97;;
22357;SDS011;11346;50.150;8.150;2023-05-16T13:14:55;5.13;;;1.50;;
22357;SDS011;11346;50.150;8.150;2023-05-16T13:17:22;2.73;;;1.30;;
22357;SDS011;11346;50.150;8.150;2023-05-16T13:19:49;4.47;;;1.63;;
22357;SDS011;11346;50.150;8.150;2023-05-16T13:22:16;2.93;;;1.40;;
22357;SDS011;11346;50.150;8.150;2023-05-16T13:24:45;3.57;;;1.40;;
22357;SDS011;11346;50.150;8.150;2023-05-16T13:27:14;4.70;;;1.50;;
22357;SDS011;11346;50.150;8.150;2023-05-16T13:29:41;3.40;;;1.43;;
22357;SDS011;11346;50.150;8.150;2023-05-16T13:32:09;5.07;;;1.50;;
22357;SDS011;11346;50.150;8.150;2023-05-16T13:34:36;3.40;;;1.40;;
22357;SDS011;11346;50.150;8.150;2023-05-16T13:37:03;4.90;;;1.40;;
22357;SDS011;11346;50.150;8.150;2023-05-16T13:39:30;4.67;;;1.50;;
22357;SDS011;11346;50.150;8.150;2023-05-16T13:41:58;4.37;;;1.50;;
22357;SDS011;11346;50.150;8.150;2023-05-16T13:44:27;5.77;;;1.60;;
22357;SDS011;11346;50.150;8.150;2023-05-16T13:46:54;3.87;;;1.50;;
22357;SDS011;11346;50.150;8.150;2023-05-16T13:49:21;4.83;;;1.50;;
22357;SDS011;11346;50.150;8.150;2023-05-16T13:51:48;5.97;;;1.90;;
22357;SDS011;11346;50.150;8.150;2023-05-16T13:54:16;5.97;;;1.80;;
22357;SDS011;11346;50.150;8.150;2023-05-16T13:56:43;5.67;;;1.40;;
22357;SDS011;11346;50.150;8.150;2023-05-16T13:59:12;4.53;;;1.60;;
22357;SDS011;11346;50.150;8.150;2023-05-16T14:01:39;5.40;;;1.40;;
22357;SDS011;11346;50.150;8.150;2023-05-16T14:04:06;2.53;;;1.20;;
22357;SDS011;11346;50.150;8.150;2023-05-16T14:06:33;6.57;;;1.67;;
22357;SDS011;11346;50.150;8.150;2023-05-16T14:09:01;3.63;;;1.60;;
22357;SDS011;11346;50.150;8.150;2023-05-16T14:11:28;5.93;;;1.60;;
22357;SDS011;11346;50.150;8.150;2023-05-16T14:13:55;3.83;;;1.40;;
22357;SDS011;11346;50.150;8.150;2023-05-16T14:16:23;4.47;;;1.87;;
22357;SDS011;11346;50.150;8.150;2023-05-16T14:18:51;4.50;;;1.30;;
22357;SDS011;11346;50.150;8.150;2023-05-16T14:21:18;4.20;;;1.43;;
22357;SDS011;11346;50.150;8.150;2023-05-16T14:23:45;7.80;;;1.60;;
22357;SDS011;11346;50.150;8.150;2023-05-16T14:26:12;4.80;;;1.60;;
22357;SDS011;11346;50.150;8.150;2023-05-16T14:28:40;3.17;;;1.60;;
22357;SDS011;11346;50.150;8.150;2023-05-16T14:31:07;3.43;;;1.80;;
22357;SDS011;11346;50.150;8.150;2023-05-16T14:33:35;4.43;;;1.50;;
22357;SDS011;11346;50.150;8.150;2023-05-16T14:36:02;6.27;;;1.70;;
22357;SDS011;11346;50.150;8.150;2023-05-16T14:38:29;2.83;;;1.57;;
22357;SDS011;11346;50.150;8.150;2023-05-16T14:40:56;2.27;;;1.30;;
22357;SDS011;11346;50.150;8.150;2023-05-16T14:43:23;8.57;;;1.50;;
22357;SDS011;11346;50.150;8.150;2023-05-16T14:45:50;3.60;;;1.43;;
22357;SDS011;11346;50.150;8.150;2023-05-16T14:48:17;4.23;;;1.40;;